Time;durP1;ratioP1;P1;durP2;ratioP2;P2;SDS_P1;SDS_P2;PMS_P1;PMS_P2;Temp;Humidity;BMP_temperature;BMP_pressure;BME280_temperature;BME280_humidity;BME280_pressure;Samples;Min_cycle;Max_cycle;Signal;HPM_P1;HPM_P2
2022/03/31 00:00:57;;;;;;;26.97;17.80;;;;;;;10.24;67.90;98924.38;5111031;28;20214;-65
2022/03/31 00:03:26;;;;;;;29.20;17.60;;;;;;;10.22;67.72;98911.31;5110943;28;20215;-64
2022/03/31 00:05:54;;;;;;;26.50;16.80;;;;;;;10.22;67.59;98919.25;5111225;28;20700;-65
2022/03/31 00:08:22;;;;;;;27.63;17.60;;;;;;;10.21;67.67;98914.97;5110293;28;20202;-64
2022/03/31 00:10:52;;;;;;;28.80;16.80;;;;;;;10.16;67.63;98922.63;5107579;28;20211;-65
2022/03/31 00:13:22;;;;;;;27.53;17.30;;;;;;;10.18;68.12;98915.34;5104786;27;20255;-65
2022/03/31 00:15:49;;;;;;;29.73;17.70;;;;;;;10.28;67.03;98915.06;5110743;28;20221;-64
2022/03/31 00:18:18;;;;;;;30.00;19.50;;;;;;;10.22;67.19;98915.78;5110346;28;20206;-64
2022/03/31 00:20:47;;;;;;;30.93;19.93;;;;;;;10.17;67.98;98914.53;5109955;28;20306;-64
2022/03/31 00:23:15;;;;;;;32.63;21.10;;;;;;;10.07;68.65;98918.41;5110827;28;20206;-64
2022/03/31 00:25:43;;;;;;;32.60;20.80;;;;;;;10.10;68.18;98908.28;5110141;28;20305;-65
2022/03/31 00:28:11;;;;;;;32.63;19.43;;;;;;;10.12;67.67;98911.56;5113547;27;20228;-65
2022/03/31 00:30:39;;;;;;;28.97;18.83;;;;;;;10.18;67.43;98905.56;5109937;28;20723;-65
2022/03/31 00:33:08;;;;;;;29.57;18.03;;;;;;;10.22;67.38;98902.53;5109911;28;20206;-65
2022/03/31 00:35:36;;;;;;;29.30;18.70;;;;;;;10.20;67.55;98901.94;5109690;28;20389;-65
2022/03/31 00:38:05;;;;;;;26.37;18.40;;;;;;;10.16;67.87;98907.56;5109723;28;20328;-66
2022/03/31 00:40:34;;;;;;;29.87;17.73;;;;;;;10.08;68.32;98905.00;5109643;28;20283;-65
2022/03/31 00:43:02;;;;;;;26.47;17.57;;;;;;;10.15;68.23;98892.66;5109425;28;20216;-64
2022/03/31 00:45:34;;;;;;;32.93;17.07;;;;;;;10.05;68.34;98892.09;5110219;28;20257;-65
2022/03/31 00:48:03;;;;;;;25.00;16.87;;;;;;;10.05;68.66;98897.41;5109579;28;20491;-65
2022/03/31 00:50:33;;;;;;;28.80;16.57;;;;;;;10.08;68.41;98893.59;5106657;28;20570;-65
2022/03/31 00:53:06;;;;;;;27.13;16.87;;;;;;;10.04;68.27;98902.88;5092832;28;20674;-66
2022/03/31 00:55:54;;;;;;;25.07;15.93;;;;;;;9.96;68.66;98889.72;5089076;28;20213;-64
2022/03/31 00:58:23;;;;;;;23.47;16.37;;;;;;;9.93;68.44;98896.25;5097461;28;20255;-65
2022/03/31 01:00:51;;;;;;;29.77;16.67;;;;;;;9.96;68.19;98882.59;5109530;28;20305;-65
2022/03/31 01:03:19;;;;;;;22.80;15.33;;;;;;;9.89;68.26;98888.81;5109848;28;20218;-64
2022/03/31 01:05:46;;;;;;;23.33;15.43;;;;;;;9.92;68.12;98872.59;5109518;28;20207;-64
2022/03/31 01:08:15;;;;;;;24.33;16.03;;;;;;;9.92;68.04;98875.22;5109566;28;20557;-64
2022/03/31 01:10:43;;;;;;;28.07;16.73;;;;;;;9.83;68.58;98871.84;5108866;28;20281;-64
2022/03/31 01:13:17;;;;;;;24.73;15.83;;;;;;;9.78;68.19;98860.97;5109833;28;20293;-64
2022/03/31 01:15:46;;;;;;;25.83;16.77;;;;;;;9.72;68.63;98861.69;5109945;28;20231;-66
2022/03/31 01:18:14;;;;;;;23.20;15.20;;;;;;;9.70;68.64;98859.22;5109632;28;20208;-64
2022/03/31 01:20:43;;;;;;;25.33;15.70;;;;;;;9.73;68.11;98855.41;5108167;28;20246;-65
2022/03/31 01:23:14;;;;;;;22.67;14.70;;;;;;;9.73;68.32;98856.25;5117934;27;20638;-65
2022/03/31 01:25:41;;;;;;;25.23;16.27;;;;;;;9.69;68.23;98856.75;5129924;27;20189;-65
2022/03/31 01:28:14;;;;;;;25.17;16.00;;;;;;;9.66;68.31;98851.84;5129897;27;20609;-65
2022/03/31 01:30:42;;;;;;;24.60;15.77;;;;;;;9.59;68.55;98851.72;5128875;27;20205;-65
2022/03/31 01:33:10;;;;;;;26.80;16.00;;;;;;;9.77;67.63;98848.72;5129412;27;20208;-66
2022/03/31 01:35:41;;;;;;;25.30;16.67;;;;;;;9.72;67.89;98837.88;5129950;27;20268;-65
2022/03/31 01:38:11;;;;;;;24.97;16.00;;;;;;;9.64;67.68;98837.97;5123784;27;20339;-65
2022/03/31 01:40:41;;;;;;;25.63;16.27;;;;;;;9.49;68.14;98830.03;5126232;27;20604;-65
2022/03/31 01:43:09;;;;;;;25.33;16.70;;;;;;;9.52;68.02;98834.94;5108566;28;20670;-65
2022/03/31 01:45:37;;;;;;;25.17;16.27;;;;;;;9.59;68.01;98835.03;5111314;28;20201;-65
2022/03/31 01:48:05;;;;;;;26.97;16.03;;;;;;;9.58;68.05;98836.06;5103298;28;20224;-65
2022/03/31 01:50:33;;;;;;;23.00;15.33;;;;;;;9.59;67.65;98825.28;5108163;28;20243;-65
2022/03/31 01:53:05;;;;;;;25.13;16.83;;;;;;;9.57;67.96;98829.94;5109750;28;20628;-65
2022/03/31 01:55:33;;;;;;;28.07;16.10;;;;;;;9.57;68.47;98826.47;5109096;28;20547;-65
2022/03/31 01:58:02;;;;;;;27.07;15.90;;;;;;;9.53;68.58;98836.59;5109368;28;20222;-65
2022/03/31 02:00:30;;;;;;;25.43;15.93;;;;;;;9.51;68.62;98829.81;5108442;28;20296;-64
2022/03/31 02:02:59;;;;;;;27.00;16.13;;;;;;;9.52;68.46;98828.81;5109486;28;20595;-64
2022/03/31 02:05:27;;;;;;;25.93;16.90;;;;;;;9.46;68.40;98824.25;5108886;28;20217;-64
2022/03/31 02:07:57;;;;;;;26.20;16.30;;;;;;;9.51;68.49;98827.19;5109221;28;20283;-64
2022/03/31 02:10:26;;;;;;;28.43;17.63;;;;;;;9.29;69.44;98821.78;5108481;28;20231;-64
2022/03/31 02:12:54;;;;;;;27.43;17.20;;;;;;;9.44;69.33;98819.97;5108696;28;20673;-64
2022/03/31 02:15:26;;;;;;;26.73;16.70;;;;;;;9.48;68.75;98816.97;5109530;28;20206;-65
2022/03/31 02:17:55;;;;;;;26.93;17.10;;;;;;;9.51;68.94;98814.78;5108655;28;20210;-64
2022/03/31 02:20:23;;;;;;;24.53;15.97;;;;;;;9.58;69.06;98817.53;5091806;28;20686;-66
2022/03/31 02:22:50;;;;;;;26.53;16.27;;;;;;;9.49;69.63;98814.16;5088251;28;20302;-64
2022/03/31 02:25:19;;;;;;;25.23;16.90;;;;;;;9.56;68.50;98811.59;5088079;28;20214;-65
2022/03/31 02:27:51;;;;;;;27.07;17.13;;;;;;;9.60;68.40;98810.22;5103959;28;20269;-65
2022/03/31 02:30:20;;;;;;;26.37;15.70;;;;;;;9.62;68.60;98808.22;5108173;28;20217;-64
2022/03/31 02:32:49;;;;;;;25.33;15.73;;;;;;;9.48;69.05;98804.56;5112157;28;20644;-65
2022/03/31 02:35:17;;;;;;;27.27;16.13;;;;;;;9.60;68.48;98805.75;5112640;28;20675;-65
2022/03/31 02:37:45;;;;;;;24.73;16.10;;;;;;;9.57;68.20;98800.84;5112594;28;20704;-65
2022/03/31 02:40:12;;;;;;;25.90;16.80;;;;;;;9.65;68.14;98792.00;5111931;28;20209;-65
2022/03/31 02:42:40;;;;;;;25.13;15.83;;;;;;;9.60;68.36;98794.34;5111905;28;20216;-65
2022/03/31 02:45:09;;;;;;;25.67;16.83;;;;;;;9.62;68.28;98795.81;5092362;28;20652;-65
2022/03/31 02:47:36;;;;;;;28.60;16.57;;;;;;;9.59;68.35;98795.34;5100322;28;20597;-66
2022/03/31 02:50:20;;;;;;;26.40;16.20;;;;;;;9.53;68.46;98788.13;5111344;28;20216;-66
2022/03/31 02:55:34;;;;;;;25.27;16.60;;;;;;;9.53;68.88;98782.84;5112411;28;20198;-65
2022/03/31 02:58:05;;;;;;;26.67;15.60;;;;;;;9.48;68.60;98782.59;5111611;28;20201;-64
2022/03/31 03:00:35;;;;;;;26.57;15.27;;;;;;;9.56;68.14;98788.59;5111645;28;20473;-64
2022/03/31 03:03:04;;;;;;;24.80;15.93;;;;;;;9.57;68.11;98786.78;5111943;28;20212;-64
2022/03/31 03:05:34;;;;;;;26.87;15.80;;;;;;;9.48;68.41;98779.94;5111891;28;20282;-65
2022/03/31 03:08:02;;;;;;;25.63;17.33;;;;;;;9.52;68.48;98779.38;5111848;28;20662;-65
2022/03/31 03:10:29;;;;;;;28.10;16.53;;;;;;;9.55;68.29;98775.56;5111314;28;20421;-65
2022/03/31 03:12:57;;;;;;;25.53;16.87;;;;;;;9.56;68.30;98779.84;5111966;28;20223;-64
2022/03/31 03:15:26;;;;;;;26.30;16.60;;;;;;;9.52;68.75;98782.03;5119860;27;20287;-65
2022/03/31 03:17:54;;;;;;;27.03;17.00;;;;;;;9.52;68.46;98781.19;5118848;27;20630;-65
2022/03/31 03:20:24;;;;;;;26.57;17.33;;;;;;;9.53;68.70;98774.91;5111408;28;20288;-63
2022/03/31 03:22:54;;;;;;;28.30;16.70;;;;;;;9.53;68.39;98773.09;5112004;28;20197;-65
2022/03/31 03:25:23;;;;;;;24.47;15.83;;;;;;;9.53;68.13;98769.63;5111441;28;20741;-64
2022/03/31 03:27:52;;;;;;;28.00;16.83;;;;;;;9.47;68.29;98765.88;5111107;28;20230;-65
2022/03/31 03:30:20;;;;;;;25.53;16.70;;;;;;;9.51;68.26;98763.69;5111065;28;20243;-64
2022/03/31 03:32:48;;;;;;;27.40;16.43;;;;;;;9.28;68.91;98755.84;5111385;28;20233;-64
2022/03/31 03:35:17;;;;;;;26.40;16.43;;;;;;;9.24;68.48;98763.28;5111385;28;20285;-65
2022/03/31 03:37:44;;;;;;;27.37;16.67;;;;;;;9.17;68.53;98759.75;5111021;27;20245;-64
2022/03/31 03:40:15;;;;;;;25.93;16.00;;;;;;;9.31;68.38;98758.97;5109325;28;20212;-64
2022/03/31 03:42:49;;;;;;;25.70;16.40;;;;;;;9.38;68.66;98759.03;5110235;28;20734;-64
2022/03/31 03:45:17;;;;;;;27.10;16.57;;;;;;;9.26;68.99;98753.38;5112939;27;20564;-64
2022/03/31 03:47:48;;;;;;;28.43;16.33;;;;;;;8.93;69.60;98749.41;5110857;28;20757;-65
2022/03/31 03:50:15;;;;;;;25.40;15.83;;;;;;;9.01;69.38;98746.69;5110480;28;20619;-64
2022/03/31 03:52:43;;;;;;;27.47;17.63;;;;;;;9.07;69.22;98741.50;5111191;28;20241;-65
2022/03/31 03:55:17;;;;;;;26.83;16.13;;;;;;;9.16;69.31;98744.88;5113148;27;20198;-64
2022/03/31 03:57:45;;;;;;;28.57;16.73;;;;;;;9.20;69.02;98735.59;5113105;27;20201;-64
2022/03/31 04:00:13;;;;;;;26.90;17.30;;;;;;;9.26;68.64;98734.84;5092809;28;20673;-66
2022/03/31 04:02:41;;;;;;;25.87;16.47;;;;;;;9.33;68.47;98737.59;5090961;28;20235;-64
2022/03/31 04:05:10;;;;;;;27.37;16.60;;;;;;;9.26;68.72;98737.50;5090497;28;20273;-63
2022/03/31 04:07:37;;;;;;;26.57;17.13;;;;;;;9.27;68.66;98736.50;5090739;28;20210;-65
2022/03/31 04:10:08;;;;;;;28.30;16.37;;;;;;;9.25;68.62;98733.22;5110186;28;20324;-66
2022/03/31 04:12:38;;;;;;;33.37;17.07;;;;;;;9.23;68.48;98718.53;5110643;28;20249;-63
2022/03/31 04:15:07;;;;;;;24.00;15.43;;;;;;;8.97;69.22;98722.41;5110655;28;20208;-64
2022/03/31 04:17:36;;;;;;;29.13;17.63;;;;;;;9.11;68.88;98726.09;5110083;28;20223;-64
2022/03/31 04:20:04;;;;;;;28.03;17.03;;;;;;;9.15;68.48;98727.38;5109915;28;20296;-64
2022/03/31 04:22:33;;;;;;;28.93;18.03;;;;;;;9.08;68.85;98726.44;5110171;28;20461;-65
2022/03/31 04:25:02;;;;;;;27.20;16.60;;;;;;;9.07;68.60;98722.16;5112944;27;20210;-65
2022/03/31 04:27:30;;;;;;;30.23;16.83;;;;;;;9.05;68.57;98718.91;5109744;28;20205;-65
2022/03/31 04:29:59;;;;;;;29.67;18.17;;;;;;;9.00;69.09;98730.00;5088918;28;20277;-65
2022/03/31 04:32:27;;;;;;;26.10;15.77;;;;;;;9.03;69.06;98723.53;5089358;28;20597;-65
2022/03/31 04:34:55;;;;;;;27.70;16.87;;;;;;;9.03;68.78;98724.38;5098470;28;20528;-65
2022/03/31 04:37:22;;;;;;;26.80;17.47;;;;;;;8.95;68.94;98726.25;5097436;28;20287;-64
2022/03/31 04:39:50;;;;;;;27.77;16.43;;;;;;;8.96;68.93;98727.91;5095230;28;20242;-64
2022/03/31 04:42:29;;;;;;;25.63;16.73;;;;;;;8.95;68.76;98728.91;5110228;28;20219;-65
2022/03/31 04:44:57;;;;;;;26.20;16.27;;;;;;;8.91;68.87;98730.25;5110423;28;20656;-64
2022/03/31 04:47:26;;;;;;;26.10;15.63;;;;;;;8.87;68.66;98726.34;5110235;28;20217;-66
2022/03/31 04:49:54;;;;;;;25.07;16.27;;;;;;;8.90;68.37;98733.88;5108457;28;20251;-64
2022/03/31 04:52:22;;;;;;;27.03;16.57;;;;;;;8.82;68.48;98732.16;5110686;28;20601;-64
2022/03/31 04:54:49;;;;;;;59.43;21.20;;;;;;;8.80;68.37;98738.59;5109332;28;20329;-64
2022/03/31 04:57:19;;;;;;;28.40;17.07;;;;;;;8.74;68.50;98741.97;5110133;28;20205;-65
2022/03/31 04:59:46;;;;;;;28.10;15.63;;;;;;;8.76;68.35;98747.91;5117310;27;20205;-65
2022/03/31 05:02:14;;;;;;;39.20;17.33;;;;;;;8.77;68.18;98749.56;5111028;27;20266;-64
2022/03/31 05:04:43;;;;;;;30.60;16.17;;;;;;;8.59;69.05;98741.94;5109939;28;20204;-63
2022/03/31 05:07:11;;;;;;;26.50;15.87;;;;;;;8.74;68.25;98745.44;5108879;28;20212;-65
2022/03/31 05:09:39;;;;;;;25.00;15.83;;;;;;;8.75;68.13;98743.63;5105000;28;20224;-64
2022/03/31 05:12:08;;;;;;;29.97;16.70;;;;;;;8.73;68.17;98742.97;5109990;28;20237;-64
2022/03/31 05:14:36;;;;;;;27.63;16.80;;;;;;;8.73;67.69;98742.97;5109827;28;20257;-66
2022/03/31 05:17:04;;;;;;;28.30;16.87;;;;;;;8.67;67.55;98742.69;5109486;28;20410;-65
2022/03/31 05:19:32;;;;;;;27.70;16.17;;;;;;;8.66;67.54;98738.41;5109001;28;20242;-64
2022/03/31 05:22:01;;;;;;;27.90;16.37;;;;;;;8.59;67.89;98740.13;5109724;28;20288;-65
2022/03/31 05:24:28;;;;;;;26.77;16.60;;;;;;;8.57;67.92;98736.81;5109970;28;20260;-65
2022/03/31 05:26:56;;;;;;;30.67;16.13;;;;;;;8.60;67.63;98739.13;5109466;28;20296;-64
2022/03/31 05:29:24;;;;;;;25.00;15.93;;;;;;;8.60;67.30;98730.38;5092505;28;20232;-64
2022/03/31 05:31:51;;;;;;;28.27;17.63;;;;;;;8.62;67.30;98729.16;5099126;28;20219;-64
2022/03/31 05:34:21;;;;;;;26.83;16.73;;;;;;;8.62;66.93;98733.63;5107541;28;20208;-64
2022/03/31 05:36:49;;;;;;;27.80;17.13;;;;;;;8.57;67.16;98733.34;5108424;28;20227;-66
2022/03/31 05:39:18;;;;;;;28.83;16.63;;;;;;;8.62;66.98;98728.34;5109049;28;20567;-65
2022/03/31 05:41:46;;;;;;;27.90;17.77;;;;;;;8.62;67.04;98739.75;5108496;28;20565;-64
2022/03/31 05:44:14;;;;;;;26.23;16.87;;;;;;;8.60;67.25;98733.84;5111592;28;20657;-65
2022/03/31 05:46:42;;;;;;;30.43;16.97;;;;;;;8.60;67.06;98731.19;5109238;28;20221;-64
2022/03/31 05:49:10;;;;;;;28.83;16.43;;;;;;;8.64;66.81;98734.28;5107914;28;20239;-63
2022/03/31 05:51:38;;;;;;;28.30;16.70;;;;;;;8.67;66.94;98729.47;5108890;28;20212;-65
2022/03/31 05:54:06;;;;;;;26.63;16.00;;;;;;;8.67;66.92;98729.47;5108619;28;20205;-64
2022/03/31 05:56:36;;;;;;;34.37;17.07;;;;;;;8.61;67.00;98726.75;5110994;28;20340;-65
2022/03/31 05:59:05;;;;;;;26.77;16.07;;;;;;;8.60;67.09;98727.72;5108507;28;20661;-64
2022/03/31 06:01:33;;;;;;;26.17;16.07;;;;;;;8.63;66.91;98727.34;5109053;28;20216;-66
2022/03/31 06:04:01;;;;;;;26.77;16.50;;;;;;;8.46;67.30;98726.66;5108500;28;20235;-64
2022/03/31 06:06:28;;;;;;;30.40;17.27;;;;;;;8.44;67.45;98728.69;5111852;28;20304;-65
2022/03/31 06:08:56;;;;;;;29.30;16.67;;;;;;;8.63;66.96;98730.00;5111978;28;20291;-65
2022/03/31 06:11:24;;;;;;;29.13;17.67;;;;;;;8.61;67.43;98730.19;5112945;28;20303;-64
2022/03/31 06:13:53;;;;;;;29.30;17.03;;;;;;;8.64;67.24;98732.47;5113170;28;20209;-64
2022/03/31 06:16:20;;;;;;;29.17;16.50;;;;;;;8.64;67.44;98729.81;5112289;28;20208;-64
2022/03/31 06:18:48;;;;;;;27.17;15.60;;;;;;;8.72;67.29;98736.03;5111343;28;20314;-64
2022/03/31 06:21:16;;;;;;;34.63;17.47;;;;;;;8.58;67.44;98732.34;5112550;28;20241;-64
2022/03/31 06:23:44;;;;;;;28.50;16.83;;;;;;;8.64;67.72;98739.56;5112615;28;20216;-66
2022/03/31 06:26:11;;;;;;;33.10;16.27;;;;;;;8.75;67.42;98740.97;5112822;28;20217;-63
2022/03/31 06:28:39;;;;;;;27.70;16.47;;;;;;;8.67;68.17;98745.34;5107329;27;20223;-63
2022/03/31 06:31:09;;;;;;;30.87;17.13;;;;;;;8.82;67.59;98747.19;5091103;28;20238;-65
2022/03/31 06:33:37;;;;;;;31.63;18.03;;;;;;;8.92;66.89;98745.13;5108781;28;20241;-65
2022/03/31 06:36:06;;;;;;;33.50;17.23;;;;;;;8.97;67.29;98734.84;5111904;28;20585;-65
2022/03/31 06:38:33;;;;;;;31.00;16.77;;;;;;;8.95;66.89;98734.19;5110889;28;20612;-64
2022/03/31 06:41:08;;;;;;;34.73;17.17;;;;;;;9.04;66.48;98735.75;5112179;28;20542;-64
2022/03/31 06:43:37;;;;;;;27.60;16.63;;;;;;;9.02;66.94;98732.47;5111684;28;20205;-65
2022/03/31 06:46:05;;;;;;;28.60;16.90;;;;;;;9.05;67.31;98738.22;5111851;28;20244;-66
2022/03/31 06:48:36;;;;;;;30.63;16.83;;;;;;;9.15;66.14;98734.50;5111699;28;20259;-64
2022/03/31 06:51:05;;;;;;;25.13;16.60;;;;;;;9.03;66.63;98734.13;5112046;28;20323;-64
2022/03/31 06:53:32;;;;;;;28.03;16.90;;;;;;;9.14;66.45;98733.69;5115596;27;20631;-64
2022/03/31 06:56:00;;;;;;;29.50;17.30;;;;;;;9.21;66.42;98731.13;5111382;28;20244;-65
2022/03/31 06:58:30;;;;;;;30.20;17.77;;;;;;;9.02;66.76;98729.81;5111087;28;20729;-64
2022/03/31 07:01:07;;;;;;;29.60;17.00;;;;;;;9.21;66.60;98737.25;5116210;27;20204;-64
2022/03/31 07:03:37;;;;;;;30.17;16.70;;;;;;;9.23;66.56;98735.25;5104948;28;20372;-64
2022/03/31 07:06:04;;;;;;;26.70;16.60;;;;;;;9.28;65.81;98730.22;5112187;28;20202;-64
2022/03/31 07:08:33;;;;;;;27.57;17.00;;;;;;;9.25;66.10;98730.56;5111122;28;20614;-65
2022/03/31 07:11:00;;;;;;;23.23;15.60;;;;;;;9.24;65.57;98734.22;5111532;28;20233;-64
2022/03/31 07:13:30;;;;;;;22.03;15.13;;;;;;;9.34;64.93;98731.28;5112012;28;20259;-64
2022/03/31 07:15:58;;;;;;;26.70;16.87;;;;;;;9.29;65.51;98726.56;5111203;28;20633;-64
2022/03/31 07:18:26;;;;;;;26.80;16.17;;;;;;;9.49;65.21;98723.38;5111501;28;20203;-64
2022/03/31 07:20:57;;;;;;;29.27;16.73;;;;;;;9.61;64.57;98732.47;5111235;28;20661;-64
2022/03/31 07:23:26;;;;;;;26.33;16.30;;;;;;;9.86;63.90;98727.69;5111537;28;20289;-64
2022/03/31 07:25:54;;;;;;;23.43;15.63;;;;;;;9.63;64.98;98730.47;5113350;27;20206;-64
2022/03/31 07:28:22;;;;;;;25.67;15.57;;;;;;;9.62;64.52;98723.53;5111125;28;20206;-64
2022/03/31 07:30:51;;;;;;;24.23;15.40;;;;;;;9.83;63.79;98720.97;5111488;28;20322;-65
2022/03/31 07:33:27;;;;;;;27.93;16.87;;;;;;;9.87;63.52;98706.34;5111029;28;20255;-65
2022/03/31 07:35:56;;;;;;;27.33;15.73;;;;;;;9.90;64.00;98713.91;5111372;28;20308;-64
2022/03/31 07:38:23;;;;;;;23.10;15.27;;;;;;;9.79;63.41;98719.69;5110723;28;20242;-64
2022/03/31 07:40:51;;;;;;;21.43;14.27;;;;;;;9.87;62.40;98722.22;5111789;28;20208;-64
2022/03/31 07:43:19;;;;;;;22.73;14.60;;;;;;;10.16;61.80;98724.78;5110940;28;20281;-66
2022/03/31 07:45:47;;;;;;;22.47;14.87;;;;;;;10.08;61.27;98719.63;5111688;28;20247;-64
2022/03/31 07:48:17;;;;;;;22.20;14.13;;;;;;;9.96;62.13;98726.41;5120538;27;20222;-64
2022/03/31 07:50:45;;;;;;;22.00;14.53;;;;;;;10.27;61.37;98720.88;5131082;27;20317;-65
2022/03/31 07:53:17;;;;;;;20.10;13.67;;;;;;;10.29;61.21;98718.84;5131961;27;20760;-65
2022/03/31 07:55:45;;;;;;;23.43;15.47;;;;;;;10.09;61.90;98718.63;5131579;27;20244;-65
2022/03/31 07:58:12;;;;;;;22.33;15.27;;;;;;;10.34;60.76;98718.28;5112148;27;20645;-64
2022/03/31 08:00:40;;;;;;;21.80;15.23;;;;;;;9.99;62.23;98720.75;5110123;28;20207;-64
2022/03/31 08:03:08;;;;;;;23.83;14.87;;;;;;;10.21;61.54;98718.97;5112655;27;20214;-64
2022/03/31 08:05:38;;;;;;;20.13;14.80;;;;;;;10.02;61.38;98720.38;5110482;28;20211;-64
2022/03/31 08:08:06;;;;;;;23.20;13.93;;;;;;;10.14;60.61;98720.69;5111068;28;20198;-64
2022/03/31 08:10:35;;;;;;;22.03;13.87;;;;;;;9.67;61.48;98718.53;5110425;28;20588;-64
2022/03/31 08:13:03;;;;;;;20.37;14.50;;;;;;;9.89;62.20;98714.91;5110474;28;20236;-64
2022/03/31 08:15:30;;;;;;;24.93;15.17;;;;;;;9.84;62.30;98719.97;5110577;28;20307;-66
2022/03/31 08:17:58;;;;;;;20.87;14.07;;;;;;;9.94;62.19;98712.50;5110537;28;20202;-68
2022/03/31 08:20:26;;;;;;;21.90;13.27;;;;;;;9.81;62.17;98713.19;5109585;28;20212;-65
2022/03/31 08:22:53;;;;;;;30.13;14.97;;;;;;;10.06;61.36;98718.97;5094347;28;20237;-64
2022/03/31 08:25:21;;;;;;;21.33;14.30;;;;;;;9.85;62.14;98712.84;5100343;28;20746;-65
2022/03/31 08:27:50;;;;;;;20.93;14.57;;;;;;;9.96;62.26;98707.88;5106929;28;20213;-65
2022/03/31 08:30:20;;;;;;;22.03;15.13;;;;;;;10.11;61.80;98708.63;5089005;28;20227;-65
2022/03/31 08:32:48;;;;;;;20.33;14.30;;;;;;;9.94;61.75;98707.22;5089919;28;20682;-65
2022/03/31 08:35:19;;;;;;;23.00;15.07;;;;;;;10.16;62.16;98705.44;5090271;27;20276;-65
2022/03/31 08:37:49;;;;;;;22.60;14.87;;;;;;;10.25;61.41;98706.16;5091238;28;20317;-65
2022/03/31 08:40:17;;;;;;;24.03;15.27;;;;;;;10.24;62.02;98712.47;5126964;27;20217;-65
2022/03/31 08:42:45;;;;;;;21.57;14.53;;;;;;;10.38;61.17;98711.59;5130859;27;20316;-65
2022/03/31 08:45:17;;;;;;;23.20;15.07;;;;;;;10.28;61.15;98717.22;5130565;27;20297;-65
2022/03/31 08:47:48;;;;;;;21.17;14.27;;;;;;;10.21;61.22;98718.97;5130425;27;20242;-63
2022/03/31 08:50:18;;;;;;;23.93;15.13;;;;;;;9.96;61.79;98721.09;5130267;27;20215;-64
2022/03/31 08:52:46;;;;;;;20.90;14.50;;;;;;;10.06;61.54;98721.63;5125808;27;20215;-64
2022/03/31 08:55:14;;;;;;;21.20;14.67;;;;;;;9.95;61.69;98716.81;5109572;28;20207;-67
2022/03/31 08:57:44;;;;;;;21.40;14.33;;;;;;;10.18;61.45;98719.34;5109789;28;20297;-65
2022/03/31 09:00:15;;;;;;;21.70;14.87;;;;;;;10.16;61.55;98722.16;5109038;28;20298;-65
2022/03/31 09:02:53;;;;;;;22.63;13.97;;;;;;;10.34;61.60;98712.97;5110168;28;20213;-65
2022/03/31 09:05:36;;;;;;;21.70;15.23;;;;;;;10.10;61.50;98706.19;5109672;28;20200;-65
2022/03/31 09:08:05;;;;;;;24.87;15.20;;;;;;;9.99;61.69;98711.97;5110566;28;20202;-65
2022/03/31 09:10:36;;;;;;;25.30;16.23;;;;;;;9.87;62.19;98711.63;5112026;27;20310;-65
2022/03/31 09:13:19;;;;;;;23.47;15.70;;;;;;;10.03;61.80;98708.75;5109064;28;20211;-65
2022/03/31 09:15:53;;;;;;;22.03;14.50;;;;;;;10.07;61.79;98712.69;5110034;28;20219;-65
2022/03/31 09:18:22;;;;;;;31.97;16.97;;;;;;;10.03;62.87;98719.34;5104680;28;20263;-65
2022/03/31 09:20:52;;;;;;;21.67;14.03;;;;;;;10.11;62.18;98713.94;5100241;28;20194;-65
2022/03/31 09:23:21;;;;;;;25.00;15.30;;;;;;;10.30;61.76;98714.34;5109573;28;20704;-65
2022/03/31 09:25:50;;;;;;;22.17;15.40;;;;;;;10.37;61.45;98704.66;5109164;28;20546;-65
2022/03/31 09:28:20;;;;;;;24.90;15.87;;;;;;;10.32;60.98;98715.00;5109250;28;20211;-65
2022/03/31 09:30:50;;;;;;;22.23;15.00;;;;;;;9.88;62.63;98712.44;5108928;28;20596;-65
2022/03/31 09:33:33;;;;;;;22.53;15.43;;;;;;;10.26;61.98;98706.00;5109983;27;20548;-65
2022/03/31 09:36:04;;;;;;;22.53;14.30;;;;;;;9.88;62.24;98712.44;5112052;27;20226;-65
2022/03/31 09:38:35;;;;;;;23.47;15.30;;;;;;;10.13;62.04;98705.81;5088362;28;20254;-65
2022/03/31 09:41:05;;;;;;;21.93;15.20;;;;;;;10.16;61.18;98708.09;5088662;28;20229;-65
2022/03/31 09:43:43;;;;;;;22.00;14.53;;;;;;;10.10;61.75;98712.31;5095576;27;20668;-65
2022/03/31 09:46:23;;;;;;;22.23;15.07;;;;;;;10.00;61.36;98708.31;5118768;27;20530;-66
2022/03/31 09:49:14;;;;;;;21.93;14.87;;;;;;;10.05;61.06;98704.09;5108472;28;20200;-65
2022/03/31 09:51:42;;;;;;;25.03;15.37;;;;;;;10.10;61.62;98700.91;5109051;28;20220;-64
2022/03/31 09:54:11;;;;;;;24.40;16.33;;;;;;;10.35;60.71;98694.25;5109502;28;20208;-65
2022/03/31 09:56:40;;;;;;;24.43;15.73;;;;;;;10.45;60.85;98683.34;5109532;28;20403;-65
2022/03/31 09:59:11;;;;;;;24.27;15.97;;;;;;;10.61;60.69;98684.91;5108251;28;20203;-66
2022/03/31 10:01:47;;;;;;;29.40;17.27;;;;;;;10.55;60.50;98689.94;5109481;28;20229;-65
2022/03/31 10:04:16;;;;;;;23.80;14.97;;;;;;;10.47;60.77;98681.28;5109577;28;20597;-65
2022/03/31 10:06:44;;;;;;;24.00;15.37;;;;;;;10.21;61.46;98686.34;5109371;28;20299;-65
2022/03/31 10:09:13;;;;;;;23.83;15.90;;;;;;;10.23;61.45;98679.03;5117809;28;20209;-65
2022/03/31 10:11:48;;;;;;;24.60;15.20;;;;;;;10.37;60.93;98675.53;5109006;28;20568;-66
2022/03/31 10:14:26;;;;;;;22.93;15.57;;;;;;;10.26;60.72;98676.03;5098378;28;20247;-64
2022/03/31 10:16:56;;;;;;;22.27;14.87;;;;;;;9.86;61.92;98678.22;5103562;28;20224;-65
2022/03/31 10:19:31;;;;;;;22.27;14.27;;;;;;;9.80;61.72;98681.63;5108123;28;20297;-66
2022/03/31 10:22:03;;;;;;;24.90;15.60;;;;;;;10.27;60.96;98680.31;5108871;28;20446;-64
2022/03/31 10:24:44;;;;;;;21.53;15.33;;;;;;;10.37;61.22;98678.19;5109021;28;20266;-65
2022/03/31 10:27:26;;;;;;;25.50;16.00;;;;;;;10.04;61.47;98685.75;5108946;28;20231;-66
2022/03/31 10:29:54;;;;;;;20.80;14.47;;;;;;;10.29;60.62;98675.66;5088309;28;20247;-63
2022/03/31 10:32:24;;;;;;;29.07;14.97;;;;;;;10.22;60.94;98669.44;5118068;28;20251;-64
2022/03/31 10:34:55;;;;;;;25.97;16.10;;;;;;;10.44;60.26;98676.41;5129498;28;20236;-64
2022/03/31 10:37:35;;;;;;;21.80;15.03;;;;;;;10.43;59.88;98664.97;5129827;28;20707;-64
2022/03/31 10:40:05;;;;;;;21.40;14.90;;;;;;;10.38;60.63;98671.88;5129442;28;20523;-65
2022/03/31 10:42:33;;;;;;;28.40;15.00;;;;;;;10.52;60.08;98669.13;5129617;28;20204;-65
2022/03/31 10:45:12;;;;;;;24.90;14.83;;;;;;;10.60;60.17;98662.88;5126941;28;20212;-65
2022/03/31 10:47:41;;;;;;;21.80;14.37;;;;;;;10.81;60.18;98660.19;5108641;28;20253;-65
2022/03/31 10:50:23;;;;;;;21.80;14.30;;;;;;;10.87;59.44;98650.63;5108710;28;20530;-65
2022/03/31 10:52:59;;;;;;;24.87;14.90;;;;;;;10.64;59.56;98648.25;5112093;28;20260;-65
2022/03/31 10:55:35;;;;;;;20.60;14.60;;;;;;;10.73;59.42;98655.00;5112571;28;20689;-65
2022/03/31 10:58:04;;;;;;;24.37;14.43;;;;;;;10.84;59.42;98648.34;5112634;28;20209;-65
2022/03/31 11:00:33;;;;;;;23.53;15.47;;;;;;;10.92;58.99;98648.22;5111856;28;20205;-65
2022/03/31 11:03:01;;;;;;;22.10;13.87;;;;;;;10.93;58.48;98650.66;5112390;28;20684;-65
2022/03/31 11:05:47;;;;;;;20.20;13.70;;;;;;;10.72;59.17;98650.75;5112082;28;20323;-65
2022/03/31 11:08:17;;;;;;;26.77;14.33;;;;;;;10.61;58.95;98653.91;5111890;28;20308;-65
2022/03/31 11:10:49;;;;;;;25.60;15.47;;;;;;;10.47;59.31;98649.50;5102105;28;20209;-64
2022/03/31 11:13:20;;;;;;;23.27;14.97;;;;;;;10.80;59.58;98649.78;5111381;28;20435;-65
2022/03/31 11:15:50;;;;;;;21.80;14.43;;;;;;;11.01;58.66;98647.03;5111856;28;20248;-66
2022/03/31 11:18:32;;;;;;;21.97;14.37;;;;;;;10.85;58.85;98648.16;5108076;28;20235;-65
2022/03/31 11:21:03;;;;;;;23.20;15.13;;;;;;;10.92;58.77;98653.50;5111633;28;20320;-66
2022/03/31 11:23:32;;;;;;;20.07;13.90;;;;;;;10.89;58.90;98648.63;5111542;28;20233;-64
2022/03/31 11:26:02;;;;;;;20.17;13.80;;;;;;;10.71;58.59;98651.75;5121289;27;20212;-64
2022/03/31 11:28:30;;;;;;;24.50;15.40;;;;;;;10.88;58.61;98637.19;5109199;27;20214;-64
2022/03/31 11:30:59;;;;;;;19.30;13.63;;;;;;;10.93;58.40;98640.06;5104548;27;20215;-64
2022/03/31 11:33:35;;;;;;;20.57;13.93;;;;;;;10.72;58.95;98639.31;5111781;28;20232;-66
2022/03/31 11:36:04;;;;;;;23.20;14.47;;;;;;;10.92;58.96;98634.94;5111960;28;20235;-65